createdAt,value
2022-10-17T00:01:14.300Z,13.88
2022-10-17T00:03:42.950Z,14.27
2022-10-17T00:06:14.167Z,13.63
2022-10-17T00:08:44.704Z,15.63
2022-10-17T00:11:19.645Z,11.75
2022-10-17T00:13:48.517Z,15.18
2022-10-17T00:16:23.862Z,15.93
2022-10-17T00:18:52.099Z,12.48
2022-10-17T00:21:22.281Z,17.27
2022-10-17T00:23:51.137Z,18.13
2022-10-17T00:26:24.055Z,19.38
2022-10-17T00:28:53.862Z,22.95
2022-10-17T00:31:25.640Z,17.90
2022-10-17T00:33:54.493Z,18.77
2022-10-17T00:36:25.532Z,16.52
2022-10-17T00:38:57.807Z,15.95
2022-10-17T00:41:30.796Z,17.40
2022-10-17T00:44:02.465Z,17.90
2022-10-17T00:46:32.887Z,19.00
2022-10-17T00:49:07.720Z,16.17
2022-10-17T00:51:43.090Z,16.55
2022-10-17T00:54:12.523Z,19.08
2022-10-17T00:56:42.771Z,16.00
2022-10-17T00:59:14.942Z,15.93
2022-10-17T01:01:49.807Z,16.10
2022-10-17T01:04:18.631Z,15.65
2022-10-17T01:06:47.098Z,20.02
2022-10-17T01:09:15.450Z,18.48
2022-10-17T01:11:54.301Z,15.60
2022-10-17T01:14:30.923Z,15.55
2022-10-17T01:17:07.142Z,18.45
2022-10-17T01:19:59.580Z,14.88
2022-10-17T01:22:33.671Z,17.58
2022-10-17T01:25:29.913Z,16.65
2022-10-17T01:28:19.923Z,17.65
2022-10-17T01:31:04.306Z,13.15
2022-10-17T01:33:48.636Z,16.70
2022-10-17T01:36:36.839Z,15.20
2022-10-17T01:39:16.287Z,17.55
2022-10-17T01:41:53.265Z,21.13
2022-10-17T01:44:28.522Z,18.45
2022-10-17T01:47:04.452Z,17.33
2022-10-17T01:49:36.089Z,16.30
2022-10-17T01:52:09.915Z,17.20
2022-10-17T01:54:43.984Z,17.27
2022-10-17T01:57:19.407Z,16.83
2022-10-17T01:59:53.278Z,18.20
2022-10-17T02:02:26.159Z,16.38
2022-10-17T02:04:57.970Z,20.50
2022-10-17T02:07:26.676Z,20.45
2022-10-17T02:09:57.276Z,16.80
2022-10-17T02:12:43.189Z,18.45
2022-10-17T02:15:42.634Z,18.92
2022-10-17T02:18:31.963Z,22.23
2022-10-17T02:21:08.447Z,16.92
2022-10-17T02:23:48.188Z,18.98
2022-10-17T02:26:25.636Z,21.52
2022-10-17T02:29:06.889Z,15.85
2022-10-17T02:31:41.090Z,23.55
2022-10-17T02:34:17.625Z,20.80
2022-10-17T02:36:53.994Z,20.77
2022-10-17T02:39:26.115Z,19.17
2022-10-17T02:41:57.832Z,22.42
2022-10-17T02:44:27.734Z,17.85
2022-10-17T02:47:02.815Z,19.92
2022-10-17T02:49:39.614Z,18.50
2022-10-17T02:52:14.270Z,19.95
2022-10-17T02:54:47.562Z,22.13
2022-10-17T02:57:23.177Z,21.52
2022-10-17T02:59:52.438Z,19.75
2022-10-17T03:02:20.758Z,21.00
2022-10-17T03:04:50.337Z,20.92
2022-10-17T03:07:18.575Z,21.40
2022-10-17T03:09:46.830Z,22.23
2022-10-17T03:12:15.095Z,21.10
2022-10-17T03:14:43.297Z,22.33
2022-10-17T03:17:11.510Z,23.58
2022-10-17T03:19:40.108Z,18.60
2022-10-17T03:22:09.701Z,21.65
2022-10-17T03:24:38.615Z,21.42
2022-10-17T03:27:06.979Z,26.80
2022-10-17T03:29:35.295Z,21.55
2022-10-17T03:32:05.143Z,23.58
2022-10-17T03:34:33.748Z,22.25
2022-10-17T03:37:02.428Z,25.73
2022-10-17T03:39:33.803Z,16.63
2022-10-17T03:42:02.023Z,23.17
2022-10-17T03:44:30.806Z,26.17
2022-10-17T03:47:00.646Z,22.13
2022-10-17T03:49:28.930Z,24.88
2022-10-17T03:51:57.191Z,23.38
2022-10-17T03:54:26.341Z,28.77
2022-10-17T03:59:25.661Z,21.10
2022-10-17T04:02:04.146Z,25.98
2022-10-17T04:04:32.355Z,24.05
2022-10-17T04:07:00.617Z,24.92
2022-10-17T04:09:29.040Z,23.55
2022-10-17T04:12:08.215Z,28.17
2022-10-17T04:14:38.807Z,24.50
2022-10-17T04:17:07.041Z,25.83
2022-10-17T04:19:36.598Z,26.38
2022-10-17T04:22:04.872Z,25.10
2022-10-17T04:24:36.881Z,25.67
2022-10-17T04:27:09.502Z,25.45
2022-10-17T04:29:43.950Z,24.90
2022-10-17T04:32:18.107Z,22.92
2022-10-17T04:37:31.299Z,23.30
2022-10-17T04:40:01.726Z,23.17
2022-10-17T04:42:34.804Z,26.15
2022-10-17T04:45:03.152Z,23.20
2022-10-17T04:47:31.371Z,26.25
2022-10-17T04:49:59.737Z,24.27
2022-10-17T04:52:28.407Z,27.17
2022-10-17T04:54:56.853Z,24.92
2022-10-17T04:57:25.583Z,20.55
2022-10-17T05:00:03.448Z,23.73
2022-10-17T05:02:51.391Z,24.00
2022-10-17T05:05:19.690Z,23.85
2022-10-17T05:07:51.092Z,25.50
2022-10-17T05:10:21.374Z,22.83
2022-10-17T05:12:52.215Z,23.77
2022-10-17T05:15:24.908Z,23.30
2022-10-17T05:17:56.615Z,20.25
2022-10-17T05:20:26.908Z,24.13
2022-10-17T05:22:55.430Z,28.50
2022-10-17T05:25:24.341Z,24.63
2022-10-17T05:27:52.787Z,21.23
2022-10-17T05:30:21.337Z,23.55
2022-10-17T05:32:55.820Z,23.42
2022-10-17T05:35:24.260Z,22.75
2022-10-17T05:37:53.958Z,21.73
2022-10-17T05:40:23.823Z,23.35
2022-10-17T05:42:54.469Z,23.77
2022-10-17T05:45:23.916Z,21.98
2022-10-17T05:47:52.156Z,22.02
2022-10-17T05:50:24.053Z,22.55
2022-10-17T05:53:03.925Z,20.52
2022-10-17T05:55:34.148Z,22.73
2022-10-17T05:58:02.872Z,23.27
2022-10-17T06:00:36.653Z,20.02
2022-10-17T06:03:05.280Z,18.35
2022-10-17T06:05:36.692Z,25.20
2022-10-17T06:08:05.276Z,26.70
2022-10-17T06:10:36.527Z,23.70
2022-10-17T06:13:05.233Z,22.98
2022-10-17T06:15:33.894Z,24.30
2022-10-17T06:18:07.259Z,24.67
2022-10-17T06:20:37.088Z,24.23
2022-10-17T06:23:05.612Z,26.10
2022-10-17T06:25:49.992Z,22.17
2022-10-17T06:28:18.671Z,26.02
2022-10-17T06:30:47.359Z,26.50
2022-10-17T06:33:16.768Z,20.92
2022-10-17T06:35:52.921Z,23.75
2022-10-17T06:38:22.766Z,23.02
2022-10-17T06:40:54.384Z,27.52
2022-10-17T06:43:27.791Z,24.20
2022-10-17T06:46:18.699Z,28.83
2022-10-17T06:48:57.221Z,24.70
2022-10-17T06:51:45.509Z,27.40
2022-10-17T06:54:16.803Z,25.75
2022-10-17T06:57:12.074Z,26.33
2022-10-17T06:59:53.362Z,25.17
2022-10-17T07:02:28.460Z,22.35
2022-10-17T07:04:58.520Z,28.73
2022-10-17T07:07:28.644Z,24.90
2022-10-17T07:09:57.377Z,21.65
2022-10-17T07:12:26.653Z,19.05
2022-10-17T07:14:55.262Z,21.13
2022-10-17T07:17:23.582Z,23.48
2022-10-17T07:19:52.135Z,18.60
2022-10-17T07:22:20.367Z,19.85
2022-10-17T07:24:52.164Z,22.90
2022-10-17T07:27:38.210Z,19.73
2022-10-17T07:30:09.186Z,20.58
2022-10-17T07:32:40.199Z,20.02
2022-10-17T07:35:11.284Z,18.83
2022-10-17T07:37:40.604Z,18.23
2022-10-17T07:40:11.711Z,19.75
2022-10-17T07:45:15.656Z,17.88
2022-10-17T07:47:44.496Z,20.23
2022-10-17T07:50:16.578Z,18.85
2022-10-17T07:52:44.753Z,22.13
2022-10-17T07:55:14.314Z,21.17
2022-10-17T07:57:42.524Z,19.20
2022-10-17T08:00:11.944Z,14.98
2022-10-17T08:02:43.298Z,14.23
2022-10-17T08:05:11.877Z,19.00
2022-10-17T08:07:41.360Z,15.93
2022-10-17T08:10:12.371Z,13.02
2022-10-17T08:12:42.332Z,13.87
2022-10-17T08:15:12.152Z,15.48
2022-10-17T08:17:40.706Z,12.07
2022-10-17T08:20:11.154Z,12.95
2022-10-17T08:22:39.507Z,13.15
2022-10-17T08:25:09.753Z,17.27
2022-10-17T08:27:38.038Z,18.83
2022-10-17T08:30:09.721Z,10.45
2022-10-17T08:32:38.080Z,11.32
2022-10-17T08:35:07.281Z,9.52
2022-10-17T08:37:36.100Z,10.43
2022-10-17T08:40:05.746Z,8.52
2022-10-17T08:43:00.415Z,15.48
2022-10-17T08:45:36.769Z,8.65
2022-10-17T08:48:12.021Z,7.45
2022-10-17T08:50:46.708Z,7.15
2022-10-17T08:53:21.031Z,10.57
2022-10-17T08:55:51.573Z,7.63
2022-10-17T08:58:23.694Z,6.55
2022-10-17T09:01:06.907Z,8.27
2022-10-17T09:03:54.270Z,5.45
2022-10-17T09:06:30.085Z,4.97
2022-10-17T09:09:14.295Z,5.75
2022-10-17T09:11:58.443Z,4.72
2022-10-17T09:14:50.580Z,6.93
2022-10-17T09:17:33.808Z,4.72
2022-10-17T09:20:10.972Z,10.15
2022-10-17T09:22:46.783Z,5.05
2022-10-17T09:25:18.837Z,6.20
2022-10-17T09:27:51.821Z,6.75
2022-10-17T09:30:50.271Z,4.45
2022-10-17T09:33:35.873Z,5.68
2022-10-17T09:36:16.047Z,3.58
2022-10-17T09:38:49.306Z,4.32
2022-10-17T09:44:19.477Z,5.82
2022-10-17T09:47:14.783Z,4.85
2022-10-17T09:49:47.279Z,4.10
2022-10-17T09:52:19.448Z,4.45
2022-10-17T09:54:49.953Z,3.53
2022-10-17T09:57:20.316Z,4.45
2022-10-17T09:59:57.363Z,6.57
2022-10-17T10:02:28.453Z,3.92
2022-10-17T10:07:38.235Z,7.07
2022-10-17T10:10:23.709Z,4.28
2022-10-17T10:13:16.717Z,2.90
2022-10-17T10:15:47.022Z,6.43
2022-10-17T10:18:35.866Z,8.52
2022-10-17T10:21:10.683Z,3.40
2022-10-17T10:23:41.197Z,5.97
2022-10-17T10:26:34.832Z,5.55
2022-10-17T10:29:06.595Z,3.58
2022-10-17T10:31:39.773Z,3.67
2022-10-17T10:34:23.385Z,9.02
2022-10-17T10:36:59.448Z,5.50
2022-10-17T10:39:44.243Z,4.03
2022-10-17T10:42:29.394Z,4.97
2022-10-17T10:45:07.469Z,9.80
2022-10-17T10:47:37.887Z,4.10
2022-10-17T10:50:24.382Z,5.97
2022-10-17T10:53:12.924Z,4.47
2022-10-17T10:55:47.857Z,3.72
2022-10-17T10:58:29.306Z,5.40
2022-10-17T11:03:35.800Z,3.35
2022-10-17T11:06:12.346Z,3.05
2022-10-17T11:08:48.729Z,6.40
2022-10-17T11:11:29.479Z,4.07
2022-10-17T11:14:04.634Z,5.00
2022-10-17T11:16:41.731Z,8.38
2022-10-17T11:19:19.221Z,6.20
2022-10-17T11:21:53.877Z,5.72
2022-10-17T11:24:29.247Z,6.38
2022-10-17T11:27:02.234Z,8.27
2022-10-17T11:29:33.852Z,7.32
2022-10-17T11:34:39.677Z,6.18
2022-10-17T11:37:18.982Z,3.80
2022-10-17T11:39:55.433Z,4.97
2022-10-17T11:42:29.676Z,5.25
2022-10-17T11:45:04.921Z,4.13
2022-10-17T11:47:48.162Z,4.28
2022-10-17T11:53:19.017Z,6.03
2022-10-17T11:58:34.104Z,4.45
2022-10-17T12:01:16.137Z,10.45
2022-10-17T12:04:06.342Z,4.40
2022-10-17T12:06:51.252Z,6.07
2022-10-17T12:09:28.322Z,5.18
2022-10-17T12:12:00.428Z,7.53
2022-10-17T12:14:43.799Z,8.00
2022-10-17T12:17:34.742Z,3.95
2022-10-17T12:20:36.511Z,5.55
2022-10-17T12:23:36.421Z,4.32
2022-10-17T12:26:07.921Z,3.05
2022-10-17T12:28:44.732Z,4.50
2022-10-17T12:31:29.592Z,4.35
2022-10-17T12:34:02.960Z,3.85
2022-10-17T12:36:42.153Z,5.07
2022-10-17T12:39:52.332Z,8.90
2022-10-17T12:43:00.377Z,4.97
2022-10-17T12:45:52.444Z,4.05
2022-10-17T12:51:35.726Z,5.25
2022-10-17T12:54:13.528Z,7.43
2022-10-17T12:56:45.314Z,6.20
2022-10-17T12:59:18.546Z,5.65
2022-10-17T13:01:52.472Z,5.28
2022-10-17T13:04:22.203Z,5.38
2022-10-17T13:06:54.549Z,6.70
2022-10-17T13:09:30.364Z,6.07
2022-10-17T13:12:02.559Z,3.85
2022-10-17T13:14:32.872Z,5.45
2022-10-17T13:17:06.144Z,5.55
2022-10-17T13:19:46.324Z,4.40
2022-10-17T13:22:18.526Z,4.70
2022-10-17T13:24:47.576Z,6.57
2022-10-17T13:27:29.879Z,5.65
2022-10-17T13:30:01.246Z,7.03
2022-10-17T13:32:40.782Z,5.55
2022-10-17T13:35:13.188Z,4.88
2022-10-17T13:37:42.567Z,3.65
2022-10-17T13:40:40.855Z,4.80
2022-10-17T13:43:13.077Z,4.45
2022-10-17T13:45:48.283Z,4.35
2022-10-17T13:48:24.587Z,6.72
2022-10-17T13:50:57.195Z,6.18
2022-10-17T13:53:32.343Z,6.25
2022-10-17T13:56:26.439Z,4.30
2022-10-17T13:58:56.166Z,4.93
2022-10-17T14:01:26.713Z,5.47
2022-10-17T14:04:08.400Z,5.38
2022-10-17T14:06:46.283Z,9.23
2022-10-17T14:09:23.511Z,6.93
2022-10-17T14:12:03.113Z,5.65
2022-10-17T14:14:51.640Z,5.65
2022-10-17T14:17:27.223Z,3.40
2022-10-17T14:20:26.659Z,6.20
2022-10-17T14:23:10.792Z,7.57
2022-10-17T14:25:41.901Z,7.35
2022-10-17T14:28:16.967Z,3.63
2022-10-17T14:31:02.188Z,10.65
2022-10-17T14:33:33.361Z,6.10
2022-10-17T14:36:05.482Z,6.30
2022-10-17T14:38:35.956Z,4.47
2022-10-17T14:41:37.814Z,8.73
2022-10-17T14:44:01.874Z,6.45
2022-10-17T14:46:30.966Z,6.97
2022-10-17T14:49:07.517Z,7.88
2022-10-17T14:51:50.270Z,6.90
2022-10-17T14:54:29.219Z,5.38
2022-10-17T14:56:57.728Z,5.30
2022-10-17T14:59:52.266Z,7.43
2022-10-17T15:02:14.917Z,9.93
2022-10-17T15:04:43.562Z,5.30
2022-10-17T15:07:15.921Z,6.78
2022-10-17T15:09:45.344Z,4.20
2022-10-17T15:12:18.495Z,5.13
2022-10-17T15:14:47.972Z,11.88
2022-10-17T15:17:20.800Z,5.65
2022-10-17T15:19:50.646Z,6.30
2022-10-17T15:22:20.989Z,6.38
2022-10-17T15:24:49.853Z,4.70
2022-10-17T15:27:20.316Z,7.15
2022-10-17T15:29:49.139Z,7.35
2022-10-17T15:32:17.846Z,8.77
2022-10-17T15:34:46.280Z,6.28
2022-10-17T15:37:22.388Z,4.95
2022-10-17T15:39:54.368Z,5.60
2022-10-17T15:42:24.048Z,6.78
2022-10-17T15:44:52.292Z,7.00
2022-10-17T15:47:28.235Z,5.20
2022-10-17T15:49:56.914Z,7.78
2022-10-17T15:52:26.920Z,4.18
2022-10-17T15:54:57.344Z,5.80
2022-10-17T15:57:31.660Z,5.97
2022-10-17T16:00:01.363Z,4.60
2022-10-17T16:02:29.623Z,9.20
2022-10-17T16:04:57.805Z,4.38
2022-10-17T16:07:27.506Z,7.22
2022-10-17T16:09:56.527Z,6.15
2022-10-17T16:12:31.117Z,7.03
2022-10-17T16:14:59.792Z,6.05
2022-10-17T16:17:28.629Z,4.15
2022-10-17T16:19:57.074Z,4.18
2022-10-17T16:22:33.122Z,7.22
2022-10-17T16:25:09.272Z,8.93
2022-10-17T16:27:38.187Z,6.78
2022-10-17T16:30:09.356Z,3.47
2022-10-17T16:32:37.997Z,7.82
2022-10-17T16:35:07.527Z,6.50
2022-10-17T16:37:37.131Z,6.75
2022-10-17T16:40:06.433Z,10.02
2022-10-17T16:42:34.624Z,3.20
2022-10-17T16:45:02.847Z,8.10
2022-10-17T16:47:31.209Z,4.57
2022-10-17T16:49:59.446Z,6.22
2022-10-17T16:52:27.979Z,10.30
2022-10-17T16:54:57.748Z,11.35
2022-10-17T16:57:25.905Z,10.13
2022-10-17T16:59:54.083Z,10.45
2022-10-17T17:02:22.666Z,7.95
2022-10-17T17:04:50.892Z,15.18
2022-10-17T17:07:19.945Z,11.48
2022-10-17T17:09:49.083Z,12.70
2022-10-17T17:12:18.727Z,8.82
2022-10-17T17:14:46.933Z,12.40
2022-10-17T17:17:24.525Z,12.57
2022-10-17T17:20:04.140Z,10.38
2022-10-17T17:22:32.289Z,11.13
2022-10-17T17:25:00.523Z,13.05
2022-10-17T17:27:30.792Z,14.45
2022-10-17T17:29:59.361Z,16.10
2022-10-17T17:32:27.554Z,16.13
2022-10-17T17:34:56.158Z,16.90
2022-10-17T17:37:24.300Z,14.75
2022-10-17T17:39:52.551Z,16.45
2022-10-17T17:42:20.947Z,17.30
2022-10-17T17:44:52.168Z,11.70
2022-10-17T17:47:20.701Z,14.18
2022-10-17T17:49:49.247Z,15.40
2022-10-17T17:52:17.399Z,17.52
2022-10-17T17:54:46.146Z,21.45
2022-10-17T17:57:14.306Z,21.05
2022-10-17T17:59:43.059Z,18.40
2022-10-17T18:02:13.704Z,18.10
2022-10-17T18:04:42.296Z,18.90
2022-10-17T18:07:10.786Z,15.55
2022-10-17T18:09:39.007Z,24.75
2022-10-17T18:12:07.588Z,17.33
2022-10-17T18:14:35.854Z,21.45
2022-10-17T18:17:04.009Z,21.25
2022-10-17T18:19:33.583Z,18.67
2022-10-17T18:22:01.863Z,21.33
2022-10-17T18:24:30.072Z,24.30
2022-10-17T18:26:59.809Z,25.38
2022-10-17T18:29:29.412Z,22.98
2022-10-17T18:31:57.625Z,25.05
2022-10-17T18:34:27.181Z,22.63
2022-10-17T18:36:56.764Z,25.77
2022-10-17T18:39:25.395Z,26.77
2022-10-17T18:41:53.579Z,21.95
2022-10-17T18:44:22.163Z,24.55
2022-10-17T18:46:50.433Z,27.20
2022-10-17T18:49:23.066Z,25.60
2022-10-17T18:51:51.518Z,31.85
2022-10-17T18:54:24.396Z,24.02
2022-10-17T18:56:54.857Z,29.88
2022-10-17T18:59:23.592Z,28.27
2022-10-17T19:01:52.313Z,28.42
2022-10-17T19:04:20.762Z,29.63
2022-10-17T19:06:48.952Z,29.30
2022-10-17T19:09:17.591Z,31.75
2022-10-17T19:11:47.076Z,33.80
2022-10-17T19:14:15.504Z,27.65
2022-10-17T19:16:46.185Z,38.05
2022-10-17T19:19:16.798Z,31.45
2022-10-17T19:21:46.186Z,30.77
2022-10-17T19:24:17.435Z,31.90
2022-10-17T19:26:50.162Z,31.92
2022-10-17T19:29:20.058Z,30.67
2022-10-17T19:31:49.826Z,35.92
2022-10-17T19:34:19.088Z,33.70
2022-10-17T19:36:47.770Z,26.27
2022-10-17T19:39:18.651Z,35.45
2022-10-17T19:41:50.033Z,33.88
2022-10-17T19:44:18.991Z,35.10
2022-10-17T19:46:49.139Z,28.13
2022-10-17T19:49:18.139Z,36.58
2022-10-17T19:51:46.580Z,33.05
2022-10-17T19:54:15.097Z,41.45
2022-10-17T19:56:43.504Z,39.03
2022-10-17T19:59:15.974Z,35.22
2022-10-17T20:01:44.882Z,33.90
2022-10-17T20:04:14.034Z,41.08
2022-10-17T20:06:43.295Z,47.92
2022-10-17T20:09:16.574Z,43.45
2022-10-17T20:11:46.297Z,38.70
2022-10-17T20:14:15.981Z,43.63
2022-10-17T20:16:49.888Z,41.15
2022-10-17T20:19:18.175Z,47.50
2022-10-17T20:21:46.557Z,49.95
2022-10-17T20:24:17.736Z,51.28
2022-10-17T20:26:46.673Z,51.92
2022-10-17T20:29:20.169Z,51.20
2022-10-17T20:31:49.614Z,50.08
2022-10-17T20:34:19.719Z,40.60
2022-10-17T20:36:48.803Z,51.92
2022-10-17T20:39:19.403Z,53.72
2022-10-17T20:41:48.664Z,53.45
2022-10-17T20:44:18.261Z,54.65
2022-10-17T20:47:00.703Z,54.97
2022-10-17T20:49:30.081Z,55.80
2022-10-17T20:51:58.512Z,60.55
2022-10-17T20:54:28.292Z,66.78
2022-10-17T20:56:59.810Z,57.00
2022-10-17T20:59:34.239Z,61.00
2022-10-17T21:02:02.936Z,59.78
2022-10-17T21:04:47.391Z,57.88
2022-10-17T21:07:16.245Z,56.88
2022-10-17T21:09:46.240Z,59.30
2022-10-17T21:12:21.649Z,64.45
2022-10-17T21:15:01.204Z,65.30
2022-10-17T21:17:29.640Z,66.43
2022-10-17T21:19:57.848Z,65.05
2022-10-17T21:22:26.232Z,60.70
2022-10-17T21:24:54.470Z,68.53
2022-10-17T21:27:22.733Z,64.70
2022-10-17T21:29:52.029Z,67.47
2022-10-17T21:32:39.454Z,76.43
2022-10-17T21:35:10.237Z,73.55
2022-10-17T21:37:38.489Z,74.05
2022-10-17T21:40:08.477Z,72.82
2022-10-17T21:42:36.666Z,75.22
2022-10-17T21:45:10.755Z,83.15
2022-10-17T21:48:10.805Z,67.95
2022-10-17T21:50:33.923Z,71.40
2022-10-17T21:53:02.138Z,82.53
2022-10-17T21:55:30.382Z,76.32
2022-10-17T21:57:58.563Z,72.35
2022-10-17T22:00:26.804Z,72.22
2022-10-17T22:02:56.371Z,72.95
2022-10-17T22:05:24.651Z,75.50
2022-10-17T22:07:52.805Z,83.03
2022-10-17T22:10:21.064Z,77.05
2022-10-17T22:12:49.600Z,81.57
2022-10-17T22:15:17.951Z,77.80
2022-10-17T22:17:46.124Z,86.47
2022-10-17T22:20:15.944Z,84.28
2022-10-17T22:22:44.067Z,84.32
2022-10-17T22:25:12.226Z,80.15
2022-10-17T22:27:40.468Z,82.82
2022-10-17T22:30:10.446Z,93.75
2022-10-17T22:32:38.620Z,87.68
2022-10-17T22:35:08.652Z,84.43
2022-10-17T22:37:38.280Z,93.22
2022-10-17T22:40:09.032Z,93.90
2022-10-17T22:42:37.588Z,82.47
2022-10-17T22:45:06.854Z,89.60
2022-10-17T22:47:35.376Z,91.97
2022-10-17T22:50:04.018Z,95.68
2022-10-17T22:52:32.453Z,100.70
2022-10-17T22:55:04.434Z,90.15
2022-10-17T22:57:33.045Z,100.57
2022-10-17T23:00:01.264Z,91.85
2022-10-17T23:02:29.857Z,90.95
2022-10-17T23:04:58.231Z,100.63
2022-10-17T23:07:26.917Z,94.28
2022-10-17T23:09:55.342Z,95.70
2022-10-17T23:12:25.191Z,114.43
2022-10-17T23:14:53.421Z,100.78
2022-10-17T23:17:21.622Z,119.82
2022-10-17T23:19:51.870Z,105.82
2022-10-17T23:22:22.408Z,104.47
2022-10-17T23:24:50.610Z,106.47
2022-10-17T23:27:18.888Z,110.30
2022-10-17T23:29:48.574Z,131.13
2022-10-17T23:32:16.777Z,123.63
2022-10-17T23:34:44.958Z,115.63
2022-10-17T23:37:13.135Z,114.30
2022-10-17T23:39:41.329Z,104.47
2022-10-17T23:42:09.477Z,113.93
2022-10-17T23:44:37.711Z,109.60
2022-10-17T23:47:07.266Z,110.35
2022-10-17T23:49:35.454Z,125.10
2022-10-17T23:52:03.993Z,114.65
2022-10-17T23:54:32.379Z,121.03
2022-10-17T23:57:00.601Z,126.60
2022-10-17T23:59:28.827Z,126.38
